Messwerte Mersa Matruh

Temperatur

Temperatur
°C
1604001600 22.00 22.00 22
1604005200 23.00 23.00 19
1604008800 0.00 0.00 19
1604012400 1.00 1.00 18
1604016000 2.00 2.00 17
1604019600 3.00 3.00
1604023200 4.00 4.00 17
1604026800 5.00 5.00
1604030400 6.00 6.00 17
1604034000 7.00 7.00 18
1604037600 8.00 8.00 19
1604041200 9.00 9.00 22
1604044800 10.00 10.00 23
1604048400 11.00 11.00 24
1604052000 12.00 12.00 24
1604055600 13.00 13.00 24
1604059200 14.00 14.00 25
1604062800 15.00 15.00 24
1604066400 16.00 16.00 24
1604070000 17.00 17.00
1604073600 18.00 18.00 23
1604077200 19.00 19.00 23
1604080800 20.00 20.00
1604084400 21.00 21.00 23

Aktuellste Messwerte

Wettercharakter
Wetter: freundlich
Temperatur
23 °C
Feuchtigkeit
65 %
Wind
15 km/hWindrichtung: Nord
Luftdruck
1018 hPa
Messzeit: 30. Oktober 2020, 21.00Datenquelle: METAR

Weitere Messstationen in der Nähe

Messstation Temperatur Entfernung
Alexandria Borg El Arab 21 °C 240 km
Alexandria 24 °C 260 km
Kairo 24 °C 421 km
Karpathos 18 °C 466 km
Port Said 25 °C 476 km
Iraklion 20 °C 483 km

Wind

Windrichtung Böen Mittelwind
° km/h km/h
1604001600 22.00 21.00 - 22.00 340° 10
1604005200 23.00 22.00 - 23.00 0
1604008800 0.00 23.00 - 0.00 0
1604012400 1.00 0.00 - 1.00 0
1604016000 2.00 1.00 - 2.00 0
1604019600 3.00 2.00 - 3.00
1604023200 4.00 3.00 - 4.00 0
1604026800 5.00 4.00 - 5.00
1604030400 6.00 5.00 - 6.00 250° 10
1604034000 7.00 6.00 - 7.00 270° 10
1604037600 8.00 7.00 - 8.00 270° 15
1604041200 9.00 8.00 - 9.00 270° 15
1604044800 10.00 9.00 - 10.00 300° 20
1604048400 11.00 10.00 - 11.00 320° 15
1604052000 12.00 11.00 - 12.00 300° 20
1604055600 13.00 12.00 - 13.00 330° 15
1604059200 14.00 13.00 - 14.00 360° 20
1604062800 15.00 14.00 - 15.00 360° 20
1604066400 16.00 15.00 - 16.00 340° 15
1604070000 17.00 16.00 - 17.00
1604073600 18.00 17.00 - 18.00 360° 15
1604077200 19.00 18.00 - 19.00 360° 20
1604080800 20.00 19.00 - 20.00
1604084400 21.00 20.00 - 21.00 350° 15

Ihre Wetterstation

Fehlt Ihre Wetterstation auf unserem Portal?

Schreiben Sie an network@meteonews.ch

Klima

Wann ist es am wärmsten? Wann regnet es am wenigsten? Unsere Klimadaten geben Auskunft.